createdAt,value
2023-05-06T00:00:56.528Z,9.16
2023-05-06T00:03:23.014Z,9.18
2023-05-06T00:05:49.633Z,9.12
2023-05-06T00:08:16.300Z,8.97
2023-05-06T00:10:42.718Z,9.02
2023-05-06T00:13:09.213Z,8.77
2023-05-06T00:15:36.305Z,8.60
2023-05-06T00:18:02.816Z,8.44
2023-05-06T00:20:29.331Z,8.83
2023-05-06T00:22:55.830Z,8.73
2023-05-06T00:25:22.224Z,8.82
2023-05-06T00:27:48.636Z,9.04
2023-05-06T00:30:15.108Z,9.10
2023-05-06T00:32:41.630Z,9.01
2023-05-06T00:35:09.067Z,9.06
2023-05-06T00:37:35.705Z,8.97
2023-05-06T00:40:03.382Z,9.04
2023-05-06T00:42:29.777Z,8.93
2023-05-06T00:44:56.180Z,9.03
2023-05-06T00:47:22.751Z,9.08
2023-05-06T00:49:49.147Z,9.06
2023-05-06T00:52:15.589Z,9.03
2023-05-06T00:54:42.094Z,8.92
2023-05-06T00:57:08.516Z,8.85
2023-05-06T00:59:34.934Z,8.85
2023-05-06T01:02:01.487Z,8.89
2023-05-06T01:04:28.955Z,8.76
2023-05-06T01:06:58.566Z,8.86
2023-05-06T01:09:29.752Z,8.74
2023-05-06T01:12:21.172Z,8.88
2023-05-06T01:14:59.527Z,8.36
2023-05-06T01:17:27.889Z,8.77
2023-05-06T01:19:58.323Z,8.45
2023-05-06T01:22:24.927Z,8.26
2023-05-06T01:24:51.456Z,8.23
2023-05-06T01:27:18.214Z,8.27
2023-05-06T01:29:45.310Z,8.13
2023-05-06T01:32:45.699Z,8.29
2023-05-06T01:35:20.488Z,8.19
2023-05-06T01:38:00.191Z,8.26
2023-05-06T01:40:27.603Z,8.02
2023-05-06T01:42:54.055Z,8.05
2023-05-06T01:45:20.852Z,8.11
2023-05-06T01:47:47.400Z,8.21
2023-05-06T01:50:13.870Z,8.02
2023-05-06T01:52:40.275Z,8.09
2023-05-06T01:55:07.415Z,8.09
2023-05-06T01:57:34.206Z,7.99
2023-05-06T02:00:00.642Z,8.00
2023-05-06T02:02:27.133Z,8.06
2023-05-06T02:04:53.822Z,7.64
2023-05-06T02:07:20.267Z,7.98
2023-05-06T02:09:46.677Z,8.03
2023-05-06T02:12:13.083Z,8.07
2023-05-06T02:14:39.489Z,8.00
2023-05-06T02:17:05.975Z,7.96
2023-05-06T02:19:32.452Z,8.09
2023-05-06T02:21:58.856Z,8.09
2023-05-06T02:24:26.122Z,8.26
2023-05-06T02:26:52.533Z,8.20
2023-05-06T02:29:18.930Z,8.04
2023-05-06T02:31:45.448Z,7.99
2023-05-06T02:34:11.890Z,8.10
2023-05-06T02:36:38.348Z,7.79
2023-05-06T02:39:04.763Z,8.10
2023-05-06T02:41:31.199Z,8.00
2023-05-06T02:43:57.605Z,8.08
2023-05-06T02:46:24.073Z,8.11
2023-05-06T02:48:50.535Z,7.97
2023-05-06T02:51:17.020Z,8.05
2023-05-06T02:53:43.413Z,8.00
2023-05-06T02:56:09.806Z,7.71
2023-05-06T02:58:36.216Z,8.00
2023-05-06T03:01:02.706Z,7.97
2023-05-06T03:03:29.199Z,8.02
2023-05-06T03:05:55.627Z,8.12
2023-05-06T03:08:22.021Z,8.05
2023-05-06T03:10:48.476Z,8.00
2023-05-06T03:13:15.037Z,7.96
2023-05-06T03:15:41.618Z,8.02
2023-05-06T03:18:08.109Z,7.96
2023-05-06T03:20:34.618Z,7.88
2023-05-06T03:23:01.391Z,7.93
2023-05-06T03:25:27.814Z,7.80
2023-05-06T03:27:54.255Z,7.93
2023-05-06T03:30:20.888Z,7.91
2023-05-06T03:32:47.359Z,7.84
2023-05-06T03:35:13.820Z,7.90
2023-05-06T03:37:40.385Z,7.84
2023-05-06T03:40:07.733Z,7.63
2023-05-06T03:42:34.154Z,7.77
2023-05-06T03:45:00.622Z,7.62
2023-05-06T03:47:27.103Z,7.63
2023-05-06T03:49:53.745Z,7.64
2023-05-06T03:52:20.172Z,7.61
2023-05-06T03:54:46.561Z,7.52
2023-05-06T03:57:13.034Z,7.60
2023-05-06T03:59:39.461Z,7.54
2023-05-06T04:02:06.017Z,7.48
2023-05-06T04:04:32.464Z,7.58
2023-05-06T04:06:58.876Z,7.62
2023-05-06T04:09:25.295Z,7.62
2023-05-06T04:11:51.746Z,7.57
2023-05-06T04:14:18.186Z,7.62
2023-05-06T04:16:44.594Z,7.40
2023-05-06T04:19:11.033Z,7.58
2023-05-06T04:21:37.488Z,7.63
2023-05-06T04:24:04.109Z,7.63
2023-05-06T04:26:31.365Z,7.67
2023-05-06T04:28:57.760Z,7.62
2023-05-06T04:31:24.201Z,7.80
2023-05-06T04:33:50.658Z,7.74
2023-05-06T04:36:17.216Z,7.74
2023-05-06T04:38:43.659Z,7.86
2023-05-06T04:41:10.065Z,7.55
2023-05-06T04:43:36.487Z,7.64
2023-05-06T04:46:03.176Z,7.68
2023-05-06T04:48:29.627Z,7.81
2023-05-06T04:50:56.123Z,7.89
2023-05-06T04:53:22.560Z,7.89
2023-05-06T04:55:48.985Z,7.63
2023-05-06T04:58:15.557Z,7.67
2023-05-06T05:00:41.971Z,7.80
2023-05-06T05:03:08.506Z,7.62
2023-05-06T05:05:35.056Z,7.88
2023-05-06T05:08:01.510Z,7.96
2023-05-06T05:10:27.945Z,7.70
2023-05-06T05:12:54.455Z,7.62
2023-05-06T05:15:21.166Z,7.70
2023-05-06T05:17:47.828Z,7.62
2023-05-06T05:20:14.371Z,7.79
2023-05-06T05:22:40.899Z,7.85
2023-05-06T05:25:08.576Z,7.93
2023-05-06T05:27:35.243Z,7.97
2023-05-06T05:30:01.661Z,8.13
2023-05-06T05:32:28.136Z,8.10
2023-05-06T05:34:54.632Z,8.25
2023-05-06T05:37:21.038Z,8.22
2023-05-06T05:39:47.679Z,8.22
2023-05-06T05:42:14.086Z,8.58
2023-05-06T05:44:40.707Z,8.77
2023-05-06T05:47:07.277Z,8.64
2023-05-06T05:49:33.741Z,8.78
2023-05-06T05:52:00.311Z,8.69
2023-05-06T05:54:26.782Z,8.65
2023-05-06T05:56:53.453Z,8.77
2023-05-06T05:59:20.027Z,8.97
2023-05-06T06:01:46.718Z,8.95
2023-05-06T06:04:13.276Z,9.00
2023-05-06T06:06:39.777Z,9.08
2023-05-06T06:09:06.470Z,8.87
2023-05-06T06:11:39.542Z,9.35
2023-05-06T06:14:05.982Z,9.43
2023-05-06T06:16:32.759Z,9.51
2023-05-06T06:18:59.302Z,9.50
2023-05-06T06:21:25.822Z,9.74
2023-05-06T06:23:52.261Z,9.95
2023-05-06T06:26:18.680Z,10.08
2023-05-06T06:28:45.297Z,10.22
2023-05-06T06:31:11.786Z,10.43
2023-05-06T06:33:38.437Z,10.65
2023-05-06T06:36:05.526Z,11.10
2023-05-06T06:38:31.965Z,11.43
2023-05-06T06:40:58.573Z,12.35
2023-05-06T06:43:25.247Z,13.32
2023-05-06T06:45:51.913Z,14.43
2023-05-06T06:48:19.118Z,14.58
2023-05-06T06:50:45.707Z,14.45
2023-05-06T06:53:12.157Z,14.34
2023-05-06T06:55:38.782Z,14.67
2023-05-06T06:58:05.277Z,15.30
2023-05-06T07:00:31.755Z,16.14
2023-05-06T07:02:58.460Z,17.11
2023-05-06T07:05:27.014Z,17.81
2023-05-06T07:07:53.554Z,18.73
2023-05-06T07:10:20.001Z,19.57
2023-05-06T07:12:46.617Z,19.49
2023-05-06T07:15:13.351Z,18.96
2023-05-06T07:17:40.197Z,18.52
2023-05-06T07:20:07.281Z,17.97
2023-05-06T07:22:33.945Z,17.78
2023-05-06T07:25:00.568Z,18.35
2023-05-06T07:27:30.193Z,19.13
2023-05-06T07:29:56.821Z,19.39
2023-05-06T07:32:23.304Z,19.84
2023-05-06T07:34:49.791Z,20.67
2023-05-06T07:37:16.242Z,21.67
2023-05-06T07:39:43.134Z,22.21
2023-05-06T07:42:12.938Z,22.44
2023-05-06T07:44:39.794Z,23.03
2023-05-06T07:47:06.361Z,23.54
2023-05-06T07:49:34.198Z,23.75
2023-05-06T07:52:00.730Z,24.12
2023-05-06T07:54:27.307Z,24.82
2023-05-06T07:56:53.902Z,25.35
2023-05-06T07:59:20.369Z,25.62
2023-05-06T08:01:46.891Z,26.07
2023-05-06T08:04:13.600Z,26.37
2023-05-06T08:06:40.275Z,26.70
2023-05-06T08:09:06.729Z,26.85
2023-05-06T08:11:33.308Z,27.30
2023-05-06T08:13:59.985Z,27.72
2023-05-06T08:16:26.544Z,28.21
2023-05-06T08:18:53.020Z,28.40
2023-05-06T08:21:19.435Z,28.77
2023-05-06T08:23:46.285Z,28.77
2023-05-06T08:26:12.892Z,28.94
2023-05-06T08:28:39.376Z,28.85
2023-05-06T08:31:05.856Z,28.65
2023-05-06T08:33:32.365Z,29.02
2023-05-06T08:35:58.968Z,29.08
2023-05-06T08:38:26.025Z,29.37
2023-05-06T08:40:52.893Z,29.50
2023-05-06T08:43:20.888Z,29.81
2023-05-06T08:45:47.367Z,30.06
2023-05-06T08:48:13.893Z,30.53
2023-05-06T08:50:43.644Z,30.92
2023-05-06T08:53:11.725Z,31.43
2023-05-06T08:55:38.461Z,31.72
2023-05-06T08:58:06.481Z,31.84
2023-05-06T09:00:32.784Z,31.78
2023-05-06T09:02:59.369Z,31.70
2023-05-06T09:05:25.880Z,31.69
2023-05-06T09:07:52.727Z,31.97
2023-05-06T09:10:19.441Z,32.18
2023-05-06T09:12:45.973Z,32.09
2023-05-06T09:15:12.861Z,31.77
2023-05-06T09:17:39.566Z,30.96
2023-05-06T09:20:09.086Z,30.18
2023-05-06T09:22:37.247Z,29.67
2023-05-06T09:25:03.984Z,28.83
2023-05-06T09:27:31.950Z,28.30
2023-05-06T09:30:09.440Z,27.92
2023-05-06T09:32:38.297Z,27.28
2023-05-06T09:35:07.218Z,27.13
2023-05-06T09:37:33.706Z,26.31
2023-05-06T09:40:00.809Z,26.39
2023-05-06T09:42:28.663Z,25.86
2023-05-06T09:44:56.372Z,25.41
2023-05-06T09:47:24.103Z,24.92
2023-05-06T09:49:50.726Z,24.76
2023-05-06T09:52:19.478Z,24.53
2023-05-06T09:54:46.768Z,24.44
2023-05-06T09:57:13.931Z,24.50
2023-05-06T09:59:41.007Z,24.09
2023-05-06T10:02:07.508Z,23.70
2023-05-06T10:04:34.448Z,23.60
2023-05-06T10:07:01.010Z,23.61
2023-05-06T10:09:27.575Z,23.36
2023-05-06T10:11:54.067Z,23.33
2023-05-06T10:14:20.567Z,23.31
2023-05-06T10:16:47.919Z,23.38
2023-05-06T10:19:15.643Z,23.39
2023-05-06T10:21:43.334Z,23.36
2023-05-06T10:24:11.531Z,23.23
2023-05-06T10:26:38.432Z,23.16
2023-05-06T10:29:05.180Z,23.08
2023-05-06T10:31:31.634Z,23.03
2023-05-06T10:33:58.405Z,22.91
2023-05-06T10:36:25.890Z,23.05
2023-05-06T10:38:57.200Z,22.84
2023-05-06T10:41:25.911Z,22.40
2023-05-06T10:43:56.708Z,22.20
2023-05-06T10:46:24.278Z,22.03
2023-05-06T10:49:12.005Z,21.94
2023-05-06T10:51:38.609Z,21.87
2023-05-06T10:54:06.918Z,21.75
2023-05-06T10:56:34.838Z,21.34
2023-05-06T10:59:04.135Z,21.71
2023-05-06T11:01:30.759Z,21.59
2023-05-06T11:03:57.461Z,21.33
2023-05-06T11:06:36.876Z,21.22
2023-05-06T11:09:04.287Z,21.06
2023-05-06T11:11:51.079Z,20.97
2023-05-06T11:14:31.355Z,21.12
2023-05-06T11:16:59.022Z,21.29
2023-05-06T11:19:30.140Z,21.27
2023-05-06T11:21:58.396Z,21.06
2023-05-06T11:24:28.228Z,20.48
2023-05-06T11:26:58.824Z,20.42
2023-05-06T11:29:25.331Z,20.28
2023-05-06T11:31:52.803Z,20.22
2023-05-06T11:34:24.955Z,20.23
2023-05-06T11:37:12.674Z,20.30
2023-05-06T11:39:40.924Z,20.58
2023-05-06T11:42:08.434Z,20.21
2023-05-06T11:44:36.752Z,20.00
2023-05-06T11:47:05.678Z,19.84
2023-05-06T11:49:55.955Z,20.16
2023-05-06T11:52:22.388Z,20.13
2023-05-06T11:54:50.986Z,20.05
2023-05-06T11:57:17.420Z,19.99
2023-05-06T11:59:43.880Z,19.77
2023-05-06T12:02:14.149Z,19.72
2023-05-06T12:04:48.045Z,19.87
2023-05-06T12:07:15.109Z,19.92
2023-05-06T12:09:48.872Z,20.00
2023-05-06T12:12:16.871Z,19.97
2023-05-06T12:14:43.311Z,20.05
2023-05-06T12:17:09.719Z,20.10
2023-05-06T12:19:36.155Z,20.12
2023-05-06T12:22:16.192Z,20.00
2023-05-06T12:24:42.718Z,20.04
2023-05-06T12:27:09.152Z,19.84
2023-05-06T12:29:35.785Z,20.18
2023-05-06T12:32:09.392Z,20.25
2023-05-06T12:34:39.969Z,20.12
2023-05-06T12:37:07.166Z,20.23
2023-05-06T12:39:37.618Z,20.22
2023-05-06T12:42:04.287Z,20.25
2023-05-06T12:44:40.221Z,20.22
2023-05-06T12:47:19.185Z,20.20
2023-05-06T12:49:48.664Z,20.09
2023-05-06T12:52:15.249Z,20.11
2023-05-06T12:54:41.800Z,20.02
2023-05-06T12:57:08.204Z,20.12
2023-05-06T12:59:35.852Z,20.14
2023-05-06T13:02:02.759Z,20.06
2023-05-06T13:04:29.261Z,20.04
2023-05-06T13:06:56.999Z,20.02
2023-05-06T13:09:23.546Z,20.16
2023-05-06T13:11:50.251Z,19.95
2023-05-06T13:14:17.989Z,19.58
2023-05-06T13:16:44.631Z,19.65
2023-05-06T13:19:21.134Z,19.63
2023-05-06T13:21:51.681Z,19.67
2023-05-06T13:24:18.110Z,19.62
2023-05-06T13:26:44.538Z,19.63
2023-05-06T13:29:11.214Z,19.81
2023-05-06T13:31:37.762Z,19.84
2023-05-06T13:34:04.415Z,19.78
2023-05-06T13:36:31.120Z,19.95
2023-05-06T13:38:57.597Z,20.04
2023-05-06T13:41:25.224Z,19.89
2023-05-06T13:43:52.133Z,20.00
2023-05-06T13:46:18.656Z,20.14
2023-05-06T13:48:45.117Z,20.19
2023-05-06T13:51:11.561Z,20.16
2023-05-06T13:53:39.336Z,20.06
2023-05-06T13:56:05.921Z,19.82
2023-05-06T13:58:32.450Z,20.00
2023-05-06T14:00:58.901Z,19.88
2023-05-06T14:03:25.388Z,19.79
2023-05-06T14:05:52.020Z,19.77
2023-05-06T14:08:18.449Z,19.77
2023-05-06T14:10:45.086Z,19.73
2023-05-06T14:13:11.758Z,19.74
2023-05-06T14:15:38.218Z,19.74
2023-05-06T14:18:04.855Z,19.64
2023-05-06T14:20:31.316Z,19.56
2023-05-06T14:22:57.973Z,19.64
2023-05-06T14:25:27.678Z,19.60
2023-05-06T14:27:54.680Z,19.53
2023-05-06T14:30:21.387Z,19.48
2023-05-06T14:32:47.822Z,19.48
2023-05-06T14:35:14.453Z,19.40
2023-05-06T14:37:40.910Z,19.29
2023-05-06T14:40:07.973Z,19.34
2023-05-06T14:42:35.843Z,19.23
2023-05-06T14:45:02.460Z,19.38
2023-05-06T14:47:29.006Z,19.36
2023-05-06T14:49:55.488Z,19.25
2023-05-06T14:52:21.970Z,19.26
2023-05-06T14:54:48.429Z,19.05
2023-05-06T14:57:14.863Z,18.96
2023-05-06T14:59:41.300Z,18.88
2023-05-06T15:02:08.608Z,18.68
2023-05-06T15:04:35.263Z,18.52
2023-05-06T15:07:02.114Z,18.61
2023-05-06T15:09:28.583Z,18.51
2023-05-06T15:11:55.035Z,18.36
2023-05-06T15:14:21.454Z,18.29
2023-05-06T15:16:47.937Z,18.03
2023-05-06T15:19:14.430Z,17.87
2023-05-06T15:21:41.064Z,17.74
2023-05-06T15:24:08.073Z,17.58
2023-05-06T15:26:34.710Z,17.59
2023-05-06T15:29:01.192Z,17.46
2023-05-06T15:31:27.859Z,17.33
2023-05-06T15:33:54.397Z,17.16
2023-05-06T15:36:20.873Z,17.07
2023-05-06T15:38:53.360Z,17.12
2023-05-06T15:41:19.881Z,16.86
2023-05-06T15:43:46.908Z,16.54
2023-05-06T15:46:13.397Z,16.53
2023-05-06T15:48:39.884Z,16.77
2023-05-06T15:51:06.369Z,16.53
2023-05-06T15:53:32.884Z,16.40
2023-05-06T15:56:13.127Z,16.18
2023-05-06T15:58:41.661Z,16.40
2023-05-06T16:01:08.992Z,16.42
2023-05-06T16:03:36.657Z,16.26
2023-05-06T16:06:03.924Z,16.29
2023-05-06T16:08:30.544Z,15.80
2023-05-06T16:10:57.200Z,15.60
2023-05-06T16:13:23.850Z,15.63
2023-05-06T16:15:50.608Z,15.60
2023-05-06T16:18:17.305Z,15.75
2023-05-06T16:20:43.968Z,15.42
2023-05-06T16:23:10.453Z,15.45
2023-05-06T16:25:38.245Z,15.62
2023-05-06T16:28:05.622Z,15.43
2023-05-06T16:30:32.219Z,15.37
2023-05-06T16:32:58.880Z,14.84
2023-05-06T16:35:25.430Z,14.64
2023-05-06T16:37:51.995Z,14.43
2023-05-06T16:40:20.495Z,13.79
2023-05-06T16:42:50.205Z,13.69
2023-05-06T16:45:16.768Z,13.47
2023-05-06T16:47:43.473Z,13.30
2023-05-06T16:50:11.252Z,13.14
2023-05-06T16:52:37.835Z,12.93
2023-05-06T16:55:04.592Z,12.78
2023-05-06T16:57:31.076Z,12.57
2023-05-06T16:59:57.753Z,12.47
2023-05-06T17:02:24.306Z,12.52
2023-05-06T17:04:51.938Z,12.65
2023-05-06T17:07:18.379Z,12.64
2023-05-06T17:09:44.811Z,13.00
2023-05-06T17:12:11.257Z,13.05
2023-05-06T17:14:37.711Z,12.74
2023-05-06T17:17:05.258Z,12.55
2023-05-06T17:19:32.015Z,12.64
2023-05-06T17:21:58.465Z,12.23
2023-05-06T17:24:24.913Z,12.60
2023-05-06T17:26:51.327Z,12.61
2023-05-06T17:29:17.816Z,12.78
2023-05-06T17:31:44.239Z,12.61
2023-05-06T17:34:10.828Z,12.90
2023-05-06T17:36:37.347Z,12.71
2023-05-06T17:39:04.688Z,12.81
2023-05-06T17:41:31.637Z,12.69
2023-05-06T17:43:58.097Z,12.47
2023-05-06T17:46:24.681Z,12.58
2023-05-06T17:48:51.131Z,12.92
2023-05-06T17:51:18.274Z,12.89
2023-05-06T17:53:45.053Z,12.50
2023-05-06T17:56:11.551Z,12.74
2023-05-06T17:58:38.047Z,12.48
2023-05-06T18:01:04.485Z,12.57
2023-05-06T18:03:31.045Z,12.80
2023-05-06T18:05:58.305Z,12.74
2023-05-06T18:08:24.766Z,12.57
2023-05-06T18:10:51.275Z,12.16
2023-05-06T18:13:17.743Z,12.29
2023-05-06T18:15:44.307Z,12.18
2023-05-06T18:18:10.831Z,12.19
2023-05-06T18:20:37.328Z,12.12
2023-05-06T18:23:03.734Z,12.10
2023-05-06T18:25:30.194Z,11.57
2023-05-06T18:27:56.864Z,11.56
2023-05-06T18:30:23.587Z,11.57
2023-05-06T18:32:51.784Z,11.41
2023-05-06T18:35:19.660Z,11.52
2023-05-06T18:37:46.345Z,11.42
2023-05-06T18:40:14.350Z,11.16
2023-05-06T18:42:41.434Z,11.33
2023-05-06T18:45:08.475Z,11.20
2023-05-06T18:47:36.927Z,11.06
2023-05-06T18:50:03.729Z,10.87
2023-05-06T18:52:30.259Z,10.96
2023-05-06T18:54:56.661Z,10.87
2023-05-06T18:57:24.230Z,10.96
2023-05-06T18:59:50.906Z,10.76
2023-05-06T19:02:17.312Z,10.72
2023-05-06T19:04:43.826Z,10.52
2023-05-06T19:07:11.068Z,10.66
2023-05-06T19:09:37.534Z,10.44
2023-05-06T19:12:04.268Z,10.43
2023-05-06T19:14:32.295Z,10.38
2023-05-06T19:16:58.905Z,10.24
2023-05-06T19:19:25.583Z,10.29
2023-05-06T19:21:52.048Z,10.33
2023-05-06T19:24:18.468Z,10.24
2023-05-06T19:26:45.112Z,10.22
2023-05-06T19:29:11.624Z,10.08
2023-05-06T19:31:38.193Z,9.83
2023-05-06T19:34:04.709Z,9.93
2023-05-06T19:36:31.632Z,9.72
2023-05-06T19:38:58.226Z,9.85
2023-05-06T19:41:24.796Z,9.77
2023-05-06T19:43:53.114Z,9.71
2023-05-06T19:46:19.605Z,9.60
2023-05-06T19:48:46.305Z,9.56
2023-05-06T19:51:12.929Z,9.48
2023-05-06T19:53:39.341Z,9.54
2023-05-06T19:56:12.078Z,9.60
2023-05-06T19:58:38.882Z,9.46
2023-05-06T20:01:05.489Z,9.57
2023-05-06T20:03:32.279Z,8.86
2023-05-06T20:05:58.990Z,9.21
2023-05-06T20:08:25.915Z,9.30
2023-05-06T20:10:52.363Z,9.37
2023-05-06T20:13:18.879Z,9.00
2023-05-06T20:15:45.738Z,9.25
2023-05-06T20:18:12.475Z,9.23
2023-05-06T20:20:39.780Z,9.20
2023-05-06T20:23:06.211Z,9.08
2023-05-06T20:25:32.770Z,9.18
2023-05-06T20:27:59.351Z,9.05
2023-05-06T20:30:26.374Z,8.95
2023-05-06T20:32:52.877Z,8.92
2023-05-06T20:35:19.398Z,8.86
2023-05-06T20:37:45.882Z,8.87
2023-05-06T20:40:12.803Z,8.80
2023-05-06T20:42:39.435Z,8.92
2023-05-06T20:45:06.436Z,8.62
2023-05-06T20:47:36.528Z,8.77
2023-05-06T20:50:03.172Z,8.28
2023-05-06T20:52:29.835Z,8.51
2023-05-06T20:54:56.486Z,8.62
2023-05-06T20:57:23.217Z,8.53
2023-05-06T20:59:51.022Z,8.45
2023-05-06T21:02:17.548Z,8.16
2023-05-06T21:04:43.976Z,8.32
2023-05-06T21:07:10.403Z,8.32
2023-05-06T21:09:38.045Z,8.30
2023-05-06T21:12:04.787Z,8.17
2023-05-06T21:14:31.456Z,8.38
2023-05-06T21:16:57.901Z,8.33
2023-05-06T21:19:24.437Z,8.20
2023-05-06T21:21:51.318Z,8.31
2023-05-06T21:24:17.813Z,8.28
2023-05-06T21:26:44.270Z,8.28
2023-05-06T21:29:10.696Z,8.23
2023-05-06T21:31:37.254Z,7.94
2023-05-06T21:34:07.168Z,7.91
2023-05-06T21:36:34.710Z,8.06
2023-05-06T21:39:05.786Z,8.08
2023-05-06T21:41:34.203Z,7.90
2023-05-06T21:44:00.634Z,7.88
2023-05-06T21:46:27.095Z,8.03
2023-05-06T21:48:53.525Z,8.01
2023-05-06T21:51:19.938Z,7.97
2023-05-06T21:53:50.052Z,7.91
2023-05-06T21:56:17.470Z,8.12
2023-05-06T21:58:44.044Z,8.13
2023-05-06T22:01:10.485Z,8.05
2023-05-06T22:03:37.038Z,7.84
2023-05-06T22:06:04.252Z,7.81
2023-05-06T22:08:30.692Z,7.57
2023-05-06T22:10:57.858Z,7.67
2023-05-06T22:13:26.461Z,7.87
2023-05-06T22:15:53.264Z,7.85
2023-05-06T22:18:19.783Z,7.68
2023-05-06T22:20:46.628Z,7.69
2023-05-06T22:23:13.359Z,7.44
2023-05-06T22:25:39.775Z,7.59
2023-05-06T22:28:06.284Z,7.64
2023-05-06T22:30:32.690Z,7.57
2023-05-06T22:32:59.144Z,7.71
2023-05-06T22:35:25.698Z,7.72
2023-05-06T22:37:52.172Z,7.62
2023-05-06T22:40:18.612Z,7.60
2023-05-06T22:42:45.040Z,7.63
2023-05-06T22:45:11.710Z,7.56
2023-05-06T22:47:38.516Z,7.67
2023-05-06T22:50:06.610Z,7.52
2023-05-06T22:52:33.097Z,7.48
2023-05-06T22:54:59.602Z,7.41
2023-05-06T22:57:26.225Z,7.41
2023-05-06T22:59:52.696Z,7.20
2023-05-06T23:02:19.407Z,7.31
2023-05-06T23:04:45.816Z,7.44
2023-05-06T23:07:13.720Z,7.45
2023-05-06T23:09:40.286Z,7.32
2023-05-06T23:12:06.816Z,7.28
2023-05-06T23:14:33.259Z,7.43
2023-05-06T23:16:59.706Z,7.31
2023-05-06T23:19:26.832Z,7.36
2023-05-06T23:21:53.235Z,7.37
2023-05-06T23:24:19.638Z,7.38
2023-05-06T23:26:46.034Z,7.43
2023-05-06T23:29:12.466Z,7.35
2023-05-06T23:31:38.898Z,7.34
2023-05-06T23:34:05.288Z,7.26
2023-05-06T23:36:31.703Z,7.20
2023-05-06T23:38:58.158Z,7.25
2023-05-06T23:41:24.578Z,7.31
2023-05-06T23:43:51.098Z,7.31
2023-05-06T23:46:17.511Z,7.24
2023-05-06T23:48:43.984Z,7.27
2023-05-06T23:51:10.551Z,7.29
2023-05-06T23:53:37.198Z,6.96
2023-05-06T23:56:03.813Z,7.19
2023-05-06T23:58:30.226Z,7.08
